Time;durP1;ratioP1;P1;durP2;ratioP2;P2;SDS_P1;SDS_P2;PMS_P1;PMS_P2;Temp;Humidity;BMP_temperature;BMP_pressure;BME280_temperature;BME280_humidity;BME280_pressure;Samples;Min_cycle;Max_cycle;Signal;HPM_P1;HPM_P2
2021/11/05 00:02:14;;;;;;;3.55;2.35;;;10.40;72.70;;;;;;2323302;54;21036;-69
2021/11/05 00:04:41;;;;;;;3.85;2.20;;;10.40;72.80;;;;;;2339859;54;20929;-69
2021/11/05 00:07:09;;;;;;;5.55;2.25;;;10.40;72.80;;;;;;2336213;54;21000;-68
2021/11/05 00:09:36;;;;;;;3.55;2.30;;;10.40;72.90;;;;;;2317898;54;20960;-69
2021/11/05 00:12:02;;;;;;;4.72;2.55;;;10.40;72.80;;;;;;2334642;54;21481;-69
2021/11/05 00:14:29;;;;;;;3.80;2.33;;;10.40;72.80;;;;;;2555649;53;21020;-69
2021/11/05 00:16:56;;;;;;;3.87;2.50;;;10.40;72.80;;;;;;2575219;53;21506;-69
2021/11/05 00:19:22;;;;;;;4.18;2.55;;;10.40;72.80;;;;;;2586200;53;20925;-69
2021/11/05 00:21:49;;;;;;;3.55;2.17;;;10.40;72.80;;;;;;2341590;54;21020;-69
2021/11/05 00:24:16;;;;;;;4.40;2.40;;;10.50;72.90;;;;;;2560955;53;20997;-69
2021/11/05 00:26:43;;;;;;;3.50;2.30;;;10.40;72.90;;;;;;2335493;54;20921;-69
2021/11/05 00:29:10;;;;;;;3.40;1.98;;;10.40;72.90;;;;;;2562926;53;20956;-69
2021/11/05 00:31:40;;;;;;;4.18;2.33;;;10.40;72.90;;;;;;2585004;53;20945;-69
2021/11/05 00:34:06;;;;;;;4.75;2.20;;;10.40;72.80;;;;;;2323278;54;21803;-69
2021/11/05 00:36:33;;;;;;;4.53;2.55;;;10.40;72.90;;;;;;2338060;54;20952;-69
2021/11/05 00:38:59;;;;;;;4.30;2.35;;;10.40;72.90;;;;;;2341067;54;20996;-69
2021/11/05 00:41:26;;;;;;;3.50;2.20;;;10.40;72.90;;;;;;2341647;54;20973;-69
2021/11/05 00:43:52;;;;;;;6.12;2.40;;;10.50;73.00;;;;;;2588422;53;20986;-69
2021/11/05 00:46:19;;;;;;;4.15;2.33;;;10.50;73.00;;;;;;2588045;53;20937;-69
2021/11/05 00:48:48;;;;;;;3.65;2.45;;;10.50;72.90;;;;;;2329566;54;21024;-69
2021/11/05 00:51:14;;;;;;;4.18;2.55;;;10.50;72.90;;;;;;2335072;54;21432;-69
2021/11/05 00:53:41;;;;;;;3.80;2.30;;;10.50;72.80;;;;;;2331492;54;20982;-69
2021/11/05 00:56:19;;;;;;;3.97;2.50;;;10.50;72.80;;;;;;2332071;54;21470;-69
2021/11/05 00:58:45;;;;;;;3.70;2.33;;;10.50;72.50;;;;;;2340263;54;21572;-68
2021/11/05 01:01:12;;;;;;;4.37;2.45;;;10.50;72.80;;;;;;2587966;53;20953;-69
2021/11/05 01:03:40;;;;;;;3.80;2.35;;;10.50;72.70;;;;;;2571591;53;20962;-69
2021/11/05 01:06:07;;;;;;;4.22;2.30;;;10.50;72.80;;;;;;2333039;54;21832;-69
2021/11/05 01:08:33;;;;;;;4.10;2.28;;;10.40;72.60;;;;;;2341723;54;20976;-69
2021/11/05 01:10:59;;;;;;;3.75;2.03;;;10.40;72.70;;;;;;2329035;54;21789;-69
2021/11/05 01:13:26;;;;;;;3.80;2.15;;;10.40;72.70;;;;;;2335543;54;21012;-69
2021/11/05 01:15:52;;;;;;;3.50;1.70;;;10.40;72.80;;;;;;2324245;54;21040;-69
2021/11/05 01:18:21;;;;;;;3.62;2.17;;;10.40;72.80;;;;;;2342195;54;20965;-69
2021/11/05 01:20:48;;;;;;;4.45;2.30;;;10.50;73.00;;;;;;2322613;54;20929;-68
2021/11/05 01:23:14;;;;;;;3.55;2.20;;;10.50;72.90;;;;;;2341811;54;21469;-68
2021/11/05 01:25:41;;;;;;;3.15;2.03;;;10.50;73.00;;;;;;2342078;54;20933;-69
2021/11/05 01:28:09;;;;;;;3.28;2.03;;;10.50;73.00;;;;;;2587483;53;21575;-69
2021/11/05 01:30:35;;;;;;;3.95;2.35;;;10.50;72.90;;;;;;2342351;54;20937;-69
2021/11/05 01:33:07;;;;;;;4.18;2.22;;;10.50;73.00;;;;;;2339651;54;20997;-68
2021/11/05 01:35:52;;;;;;;3.42;2.00;;;10.50;73.00;;;;;;2341741;54;20937;-69
2021/11/05 01:38:19;;;;;;;3.72;1.80;;;10.50;72.80;;;;;;2559422;53;20964;-69
2021/11/05 01:40:45;;;;;;;4.85;2.33;;;10.50;73.00;;;;;;2559116;53;21009;-69
2021/11/05 01:43:12;;;;;;;3.35;1.62;;;10.50;73.00;;;;;;2342161;54;20949;-69
2021/11/05 01:45:40;;;;;;;3.37;1.83;;;10.60;73.10;;;;;;2559163;53;21422;-69
2021/11/05 01:48:06;;;;;;;3.12;1.75;;;10.50;73.00;;;;;;2322728;54;20934;-69
2021/11/05 01:50:34;;;;;;;3.30;2.00;;;10.50;72.90;;;;;;2330174;54;21028;-69
2021/11/05 01:53:00;;;;;;;3.00;1.73;;;10.50;72.90;;;;;;2321517;54;21008;-69
2021/11/05 01:55:29;;;;;;;3.42;1.92;;;10.60;73.00;;;;;;2317986;54;20988;-69
2021/11/05 01:57:56;;;;;;;3.28;1.92;;;10.60;73.00;;;;;;2326905;54;21639;-69
2021/11/05 02:00:26;;;;;;;3.20;1.70;;;10.60;72.90;;;;;;2565357;52;21025;-69
2021/11/05 02:02:54;;;;;;;3.03;1.58;;;10.60;72.90;;;;;;2563905;53;21040;-69
2021/11/05 02:05:21;;;;;;;3.08;1.80;;;10.60;73.00;;;;;;2574224;53;21322;-69
2021/11/05 02:07:51;;;;;;;3.85;1.73;;;10.60;73.00;;;;;;2319868;54;20921;-69
2021/11/05 02:10:20;;;;;;;;;;;10.60;72.90;;;;;;2345908;54;20938;-69
2021/11/05 02:12:47;;;;;;;2.65;1.40;;;10.60;71.90;;;;;;2343554;54;20621;-69
2021/11/05 02:15:14;;;;;;;2.90;1.40;;;10.60;72.80;;;;;;2556171;53;21763;-69
2021/11/05 02:17:41;;;;;;;3.05;1.60;;;10.60;72.80;;;;;;2329101;54;20946;-69
2021/11/05 02:20:08;;;;;;;2.70;1.33;;;10.60;72.80;;;;;;2329875;54;21401;-69
2021/11/05 02:22:35;;;;;;;2.42;1.37;;;10.60;72.90;;;;;;2335270;54;21041;-69
2021/11/05 02:25:02;;;;;;;2.80;1.52;;;10.60;72.90;;;;;;2341638;54;21032;-69
2021/11/05 02:27:29;;;;;;;3.58;1.90;;;10.60;72.90;;;;;;2342351;54;20936;-69
2021/11/05 02:29:56;;;;;;;2.92;1.77;;;10.70;73.00;;;;;;2588259;53;20933;-69
2021/11/05 02:32:23;;;;;;;3.75;1.77;;;10.60;72.90;;;;;;2327539;54;21013;-69
2021/11/05 02:34:50;;;;;;;3.08;1.65;;;10.60;72.90;;;;;;2337446;54;20984;-69
2021/11/05 02:37:24;;;;;;;3.33;1.77;;;10.60;72.90;;;;;;2341669;54;20937;-69
2021/11/05 02:39:51;;;;;;;4.03;2.00;;;10.60;72.80;;;;;;2586217;53;20937;-69
2021/11/05 02:42:17;;;;;;;3.40;1.87;;;10.60;72.90;;;;;;2320525;54;20937;-69
2021/11/05 02:44:44;;;;;;;3.47;1.90;;;10.60;72.80;;;;;;2334849;54;21068;-68
2021/11/05 02:47:25;;;;;;;3.28;1.83;;;10.60;72.90;;;;;;2329951;54;20996;-69
2021/11/05 02:49:54;;;;;;;3.28;1.75;;;10.60;72.60;;;;;;2569140;53;21461;-70
2021/11/05 02:52:21;;;;;;;3.00;1.60;;;10.60;72.80;;;;;;2320849;54;21022;-69
2021/11/05 02:54:47;;;;;;;3.10;1.80;;;10.60;72.90;;;;;;2576230;53;21991;-68
2021/11/05 02:57:16;;;;;;;3.20;1.90;;;10.60;72.90;;;;;;2342009;54;21008;-69
2021/11/05 02:59:46;;;;;;;3.10;1.92;;;10.60;72.90;;;;;;2568519;53;21037;-69
2021/11/05 03:02:12;;;;;;;3.60;2.03;;;10.60;73.50;;;;;;2317636;55;20976;-69
2021/11/05 03:04:39;;;;;;;3.40;1.95;;;10.60;73.00;;;;;;2588858;53;20937;-69
2021/11/05 03:07:07;;;;;;;3.30;2.00;;;10.60;73.00;;;;;;2322711;54;20937;-69
2021/11/05 03:09:36;;;;;;;3.47;2.20;;;10.60;73.00;;;;;;2588303;53;21004;-69
2021/11/05 03:12:03;;;;;;;3.33;1.92;;;10.60;73.00;;;;;;2332585;54;21041;-69
2021/11/05 03:14:29;;;;;;;3.22;1.80;;;10.60;73.00;;;;;;2571920;53;20945;-69
2021/11/05 03:16:56;;;;;;;3.20;1.92;;;10.60;73.00;;;;;;2323020;54;21016;-69
2021/11/05 03:19:22;;;;;;;3.20;1.83;;;10.60;73.00;;;;;;2342456;54;21064;-69
2021/11/05 03:21:49;;;;;;;3.62;2.10;;;10.70;73.10;;;;;;2335521;54;20956;-69
2021/11/05 03:24:16;;;;;;;3.37;2.00;;;10.60;73.10;;;;;;2574656;53;21017;-69
2021/11/05 03:26:42;;;;;;;3.58;1.92;;;10.60;72.90;;;;;;2319246;54;20978;-69
2021/11/05 03:29:09;;;;;;;5.60;2.10;;;10.70;73.10;;;;;;2566422;53;21734;-69
2021/11/05 03:31:36;;;;;;;3.08;1.67;;;10.70;73.10;;;;;;2329415;54;21353;-70
2021/11/05 03:34:04;;;;;;;4.25;1.87;;;10.70;73.10;;;;;;2579200;53;20937;-70
2021/11/05 03:36:33;;;;;;;3.60;1.80;;;10.70;73.20;;;;;;2342656;54;20940;-69
2021/11/05 03:39:00;;;;;;;2.72;1.48;;;10.70;73.20;;;;;;2578825;53;21354;-69
2021/11/05 03:41:29;;;;;;;3.03;1.50;;;10.70;73.20;;;;;;2322938;54;20969;-69
2021/11/05 03:44:04;;;;;;;2.87;1.30;;;10.70;73.10;;;;;;2562377;53;21250;-68
2021/11/05 03:46:32;;;;;;;3.20;1.80;;;10.70;73.70;;;;;;2567881;53;20953;-69
2021/11/05 03:49:00;;;;;;;2.95;1.60;;;10.70;73.20;;;;;;2562481;53;20937;-69
2021/11/05 03:51:26;;;;;;;3.58;1.87;;;10.70;73.20;;;;;;2341617;54;21311;-69
2021/11/05 03:53:55;;;;;;;3.37;1.70;;;10.70;73.20;;;;;;2588174;53;20943;-69
2021/11/05 03:56:23;;;;;;;3.25;1.90;;;10.70;73.20;;;;;;2580791;53;20978;-69
2021/11/05 03:58:52;;;;;;;3.40;1.65;;;10.70;73.20;;;;;;2322858;54;21801;-69
2021/11/05 04:01:56;;;;;;;3.45;2.08;;;10.70;73.10;;;;;;2310719;55;21054;-69
2021/11/05 04:04:23;;;;;;;3.35;1.80;;;10.70;72.80;;;;;;2582247;53;21016;-70
2021/11/05 04:06:50;;;;;;;3.65;2.12;;;10.70;73.00;;;;;;2588538;53;20933;-69
2021/11/05 04:09:17;;;;;;;4.53;2.67;;;10.70;72.90;;;;;;2588585;53;20934;-69
2021/11/05 04:11:43;;;;;;;4.78;2.40;;;10.70;72.80;;;;;;2588073;53;21584;-69
2021/11/05 04:14:10;;;;;;;3.83;2.47;;;10.80;72.90;;;;;;2570763;53;20973;-69
2021/11/05 04:16:37;;;;;;;4.47;2.87;;;10.70;72.80;;;;;;2317938;54;20984;-69
2021/11/05 04:19:03;;;;;;;4.20;2.58;;;10.70;72.90;;;;;;2583676;53;20937;-69
2021/11/05 04:21:31;;;;;;;4.47;2.37;;;10.70;73.00;;;;;;2342004;54;20981;-69
2021/11/05 04:23:57;;;;;;;3.62;2.47;;;10.70;73.10;;;;;;2341359;54;20977;-69
2021/11/05 04:26:26;;;;;;;4.53;2.47;;;10.70;73.10;;;;;;2342303;54;20906;-68
2021/11/05 04:28:53;;;;;;;4.10;2.55;;;10.70;73.30;;;;;;2555699;53;21770;-68
2021/11/05 04:31:20;;;;;;;4.25;2.37;;;10.70;73.20;;;;;;2331262;54;20960;-68
2021/11/05 04:33:50;;;;;;;4.97;2.87;;;10.70;73.30;;;;;;2342093;54;20914;-68
2021/11/05 04:36:18;;;;;;;4.25;2.80;;;10.70;73.30;;;;;;2342340;54;20909;-69
2021/11/05 04:38:45;;;;;;;4.35;2.80;;;10.70;73.40;;;;;;2343104;54;20964;-69
2021/11/05 04:41:11;;;;;;;4.62;2.70;;;10.40;73.00;;;;;;2322363;54;21759;-68
2021/11/05 04:43:40;;;;;;;4.20;2.58;;;10.70;73.40;;;;;;2559074;53;20953;-69
2021/11/05 04:46:06;;;;;;;4.50;2.78;;;10.70;73.30;;;;;;2341884;54;21012;-69
2021/11/05 04:48:33;;;;;;;4.70;3.22;;;10.70;73.40;;;;;;2559491;53;20948;-69
2021/11/05 04:51:00;;;;;;;4.82;2.97;;;10.70;73.40;;;;;;2573922;53;21132;-69
2021/11/05 04:53:27;;;;;;;3.85;2.45;;;10.70;73.30;;;;;;2318100;54;20992;-68
2021/11/05 04:55:53;;;;;;;4.93;3.05;;;10.70;73.40;;;;;;2337019;54;20933;-68
2021/11/05 04:58:19;;;;;;;4.87;3.05;;;10.80;73.40;;;;;;2344925;54;21461;-69
2021/11/05 05:00:45;;;;;;;4.37;2.92;;;10.70;73.30;;;;;;2327926;54;20985;-69
2021/11/05 05:03:12;;;;;;;4.68;2.95;;;10.70;73.30;;;;;;2337536;54;20980;-69
2021/11/05 05:05:39;;;;;;;5.57;3.40;;;10.70;73.30;;;;;;2320793;54;21015;-69
2021/11/05 05:08:07;;;;;;;4.37;2.95;;;10.70;73.30;;;;;;2563748;53;20964;-69
2021/11/05 05:10:33;;;;;;;4.82;3.10;;;10.70;73.30;;;;;;2331173;54;21029;-69
2021/11/05 05:13:00;;;;;;;4.87;3.20;;;10.70;73.30;;;;;;2319885;54;20980;-69
2021/11/05 05:15:26;;;;;;;5.68;3.30;;;10.70;73.30;;;;;;2332069;54;20984;-70
2021/11/05 05:17:53;;;;;;;6.20;3.70;;;10.70;73.30;;;;;;2323176;54;21789;-70
2021/11/05 05:20:19;;;;;;;4.82;3.12;;;10.70;74.00;;;;;;2330154;54;21023;-69
2021/11/05 05:22:46;;;;;;;4.80;3.08;;;10.70;73.30;;;;;;2344122;54;21005;-69
2021/11/05 05:25:12;;;;;;;5.72;3.45;;;10.70;73.30;;;;;;2344277;54;20894;-69
2021/11/05 05:27:39;;;;;;;5.40;3.15;;;10.70;73.30;;;;;;2344405;54;21257;-69
2021/11/05 05:30:07;;;;;;;4.68;3.00;;;10.70;73.30;;;;;;2590873;53;20992;-69
2021/11/05 05:32:34;;;;;;;5.05;3.47;;;10.70;73.40;;;;;;2344512;54;20960;-69
2021/11/05 05:35:01;;;;;;;5.12;3.17;;;10.70;73.50;;;;;;2544869;53;21711;-69
2021/11/05 05:37:27;;;;;;;4.82;2.85;;;10.70;73.50;;;;;;2320041;54;21080;-69
2021/11/05 05:39:55;;;;;;;5.10;3.60;;;10.70;73.50;;;;;;2340670;54;21009;-69
2021/11/05 05:42:22;;;;;;;5.43;3.55;;;10.80;73.70;;;;;;2589621;53;21004;-69
2021/11/05 05:44:51;;;;;;;4.87;3.40;;;10.80;73.60;;;;;;2342191;54;20957;-68
2021/11/05 05:47:17;;;;;;;5.30;2.95;;;10.80;73.60;;;;;;2325723;54;20973;-69
2021/11/05 05:49:43;;;;;;;4.18;2.83;;;10.80;73.60;;;;;;2331556;54;20925;-69
2021/11/05 05:52:10;;;;;;;4.22;2.83;;;10.80;73.70;;;;;;2339963;54;21112;-70
2021/11/05 05:54:36;;;;;;;4.65;3.17;;;10.80;73.70;;;;;;2322467;54;20997;-69
2021/11/05 05:57:03;;;;;;;4.60;2.78;;;10.80;73.60;;;;;;2561383;53;20986;-69
2021/11/05 05:59:29;;;;;;;3.72;2.45;;;10.80;73.70;;;;;;2573136;53;20992;-69
2021/11/05 06:01:55;;;;;;;4.72;3.30;;;10.80;73.60;;;;;;2564010;53;20937;-69
2021/11/05 06:04:23;;;;;;;4.55;2.85;;;10.80;73.60;;;;;;2339142;54;21391;-68
2021/11/05 06:06:49;;;;;;;4.65;2.72;;;10.80;73.60;;;;;;2341897;54;20937;-69
2021/11/05 06:09:16;;;;;;;5.12;2.97;;;10.80;73.60;;;;;;2341845;54;20984;-70
2021/11/05 06:11:42;;;;;;;5.20;3.05;;;10.80;73.50;;;;;;2322724;54;20937;-69
2021/11/05 06:14:11;;;;;;;4.60;2.90;;;10.80;73.50;;;;;;2342536;54;20980;-69
2021/11/05 06:16:37;;;;;;;3.85;2.55;;;10.80;73.50;;;;;;2314172;55;21081;-69
2021/11/05 06:19:04;;;;;;;4.93;3.30;;;10.80;73.50;;;;;;2324423;54;20913;-69
2021/11/05 06:21:32;;;;;;;5.60;3.78;;;10.80;73.60;;;;;;2341219;54;20925;-70
2021/11/05 06:24:02;;;;;;;4.78;3.40;;;10.90;73.70;;;;;;2588155;53;20921;-69
2021/11/05 06:26:28;;;;;;;5.40;3.42;;;10.90;73.70;;;;;;2326647;54;20980;-69
2021/11/05 06:28:55;;;;;;;5.82;3.87;;;10.90;73.70;;;;;;2583919;53;21475;-69
2021/11/05 06:31:21;;;;;;;6.45;3.70;;;11.00;73.80;;;;;;2341666;54;21438;-69
2021/11/05 06:33:48;;;;;;;4.55;3.08;;;10.90;73.70;;;;;;2327589;54;21843;-69
2021/11/05 06:36:14;;;;;;;4.32;2.92;;;10.90;73.60;;;;;;2336992;54;20976;-69
2021/11/05 06:38:41;;;;;;;4.35;2.67;;;10.90;73.70;;;;;;2322842;54;20966;-69
2021/11/05 06:41:07;;;;;;;4.35;2.90;;;10.90;73.70;;;;;;2322758;54;21008;-70
2021/11/05 06:43:35;;;;;;;5.65;3.22;;;10.90;73.70;;;;;;2342267;54;21343;-69
2021/11/05 06:46:01;;;;;;;4.75;2.67;;;10.90;73.70;;;;;;2324828;54;21040;-69
2021/11/05 06:48:28;;;;;;;4.28;2.53;;;10.90;73.70;;;;;;2321637;54;20957;-69
2021/11/05 06:50:57;;;;;;;4.03;2.47;;;10.90;73.70;;;;;;2326728;54;21025;-70
2021/11/05 06:53:23;;;;;;;4.30;2.58;;;11.00;73.90;;;;;;2338528;54;20937;-69
2021/11/05 06:55:50;;;;;;;4.40;2.60;;;11.00;73.90;;;;;;2587374;53;20942;-69
2021/11/05 06:58:16;;;;;;;3.78;2.33;;;11.00;73.90;;;;;;2334347;54;20953;-68
2021/11/05 07:00:42;;;;;;;4.15;2.45;;;11.00;74.60;;;;;;2555510;53;20968;-69
2021/11/05 07:03:09;;;;;;;3.50;2.05;;;11.00;73.90;;;;;;2587189;53;22423;-69
2021/11/05 07:05:35;;;;;;;4.47;2.65;;;11.00;73.90;;;;;;2342573;54;20917;-69
2021/11/05 07:08:01;;;;;;;3.80;2.47;;;11.00;74.00;;;;;;2342045;54;20953;-70
2021/11/05 07:10:27;;;;;;;4.50;2.62;;;11.00;73.90;;;;;;2342440;54;20941;-69
2021/11/05 07:12:54;;;;;;;3.72;2.28;;;11.10;74.00;;;;;;2341764;54;20937;-69
2021/11/05 07:15:20;;;;;;;4.55;2.15;;;11.10;74.10;;;;;;2325908;54;20996;-69
2021/11/05 07:17:48;;;;;;;3.12;1.77;;;11.10;74.00;;;;;;2305481;55;20957;-69
2021/11/05 07:20:14;;;;;;;4.03;2.25;;;11.10;74.00;;;;;;2559480;53;21060;-69
2021/11/05 07:22:44;;;;;;;4.37;2.22;;;11.10;74.00;;;;;;2342099;54;20988;-69
2021/11/05 07:25:11;;;;;;;3.78;2.28;;;11.10;73.90;;;;;;2570241;53;21000;-70
2021/11/05 07:27:41;;;;;;;3.75;2.08;;;11.10;74.00;;;;;;2330335;54;20989;-69
2021/11/05 07:30:11;;;;;;;3.83;2.30;;;11.20;74.10;;;;;;2555288;53;20956;-69
2021/11/05 07:32:38;;;;;;;3.17;1.92;;;11.20;74.00;;;;;;2333527;54;20914;-70
2021/11/05 07:35:06;;;;;;;3.15;1.70;;;11.20;74.00;;;;;;2588448;53;20933;-69
2021/11/05 07:37:32;;;;;;;3.70;1.83;;;11.20;74.00;;;;;;2325433;54;20973;-69
2021/11/05 07:39:59;;;;;;;3.60;1.92;;;11.20;74.00;;;;;;2553971;53;21556;-69
2021/11/05 07:42:26;;;;;;;3.22;1.80;;;11.20;74.10;;;;;;2322367;54;20977;-69
2021/11/05 07:44:53;;;;;;;3.50;1.95;;;11.20;74.20;;;;;;2344977;54;20941;-69
2021/11/05 07:47:23;;;;;;;4.10;2.20;;;11.20;74.20;;;;;;2555439;53;20988;-70
2021/11/05 07:49:50;;;;;;;3.28;2.03;;;11.30;74.40;;;;;;2322869;54;20916;-69
2021/11/05 07:52:19;;;;;;;3.47;1.90;;;11.30;74.50;;;;;;2563792;53;21560;-69
2021/11/05 07:54:47;;;;;;;3.03;1.70;;;11.30;75.20;;;;;;2322782;54;21788;-69
2021/11/05 07:57:14;;;;;;;3.50;1.85;;;11.40;74.60;;;;;;2342015;54;21094;-69
2021/11/05 07:59:45;;;;;;;3.62;2.00;;;11.40;74.60;;;;;;2342119;54;20948;-69
2021/11/05 08:02:13;;;;;;;3.10;1.70;;;11.40;74.40;;;;;;2333823;54;21059;-69
2021/11/05 08:04:40;;;;;;;2.90;1.40;;;11.40;74.40;;;;;;2319306;54;21024;-70
2021/11/05 08:07:07;;;;;;;3.33;1.80;;;11.50;74.50;;;;;;2323142;54;20981;-69
2021/11/05 08:09:34;;;;;;;3.45;1.95;;;11.50;74.50;;;;;;2341083;54;20941;-69
2021/11/05 08:12:01;;;;;;;4.97;2.12;;;11.50;74.60;;;;;;2341310;54;20937;-69
2021/11/05 08:14:29;;;;;;;3.58;1.62;;;11.50;74.60;;;;;;2568634;53;21028;-69
2021/11/05 08:16:56;;;;;;;2.90;1.55;;;11.60;74.50;;;;;;2529168;54;20949;-69
2021/11/05 08:19:23;;;;;;;3.08;1.80;;;11.60;74.50;;;;;;2321397;54;20921;-69
2021/11/05 08:21:52;;;;;;;3.47;1.75;;;11.60;74.60;;;;;;2329498;54;21839;-70
2021/11/05 08:24:18;;;;;;;3.15;1.90;;;11.60;74.60;;;;;;2317985;54;21767;-69
2021/11/05 08:26:45;;;;;;;2.72;1.48;;;11.70;74.70;;;;;;2339040;54;20940;-69
2021/11/05 08:29:11;;;;;;;3.10;1.55;;;11.70;74.60;;;;;;2339358;54;20985;-69
2021/11/05 08:31:38;;;;;;;2.65;1.48;;;11.70;74.60;;;;;;2326808;54;20999;-70
2021/11/05 08:34:04;;;;;;;3.78;1.30;;;11.80;74.70;;;;;;2342068;54;20933;-69
2021/11/05 08:36:30;;;;;;;3.37;1.50;;;11.80;74.70;;;;;;2548962;53;21561;-69
2021/11/05 08:38:57;;;;;;;3.00;1.45;;;11.80;74.50;;;;;;2316273;54;20992;-69
2021/11/05 08:41:23;;;;;;;2.53;1.23;;;11.90;74.40;;;;;;2559602;53;21731;-70
2021/11/05 08:43:52;;;;;;;2.50;1.20;;;11.90;74.30;;;;;;2341975;54;21024;-70
2021/11/05 08:46:20;;;;;;;3.00;1.30;;;11.90;74.20;;;;;;2342134;54;20969;-70
2021/11/05 08:48:58;;;;;;;2.42;1.20;;;11.90;74.30;;;;;;2341875;54;21010;-70
2021/11/05 08:51:24;;;;;;;2.30;1.20;;;11.90;74.40;;;;;;2342912;54;21016;-70
2021/11/05 08:53:50;;;;;;;2.67;1.45;;;12.00;74.60;;;;;;2342246;54;21600;-70
2021/11/05 08:56:16;;;;;;;2.70;1.23;;;12.00;74.70;;;;;;2588398;53;21012;-70
2021/11/05 08:58:58;;;;;;;2.83;1.25;;;12.00;74.60;;;;;;2341864;54;21469;-70
2021/11/05 09:01:24;;;;;;;2.40;1.37;;;12.00;74.20;;;;;;2342630;54;21080;-69
2021/11/05 09:03:51;;;;;;;2.35;1.20;;;12.10;74.70;;;;;;2341983;54;20921;-70
2021/11/05 09:06:17;;;;;;;2.58;1.17;;;12.10;74.50;;;;;;2565110;53;21052;-70
2021/11/05 09:08:44;;;;;;;5.12;1.70;;;12.10;74.40;;;;;;2338313;54;21896;-70
2021/11/05 09:11:11;;;;;;;3.20;1.67;;;12.10;74.40;;;;;;2561084;53;20916;-68
2021/11/05 09:13:37;;;;;;;3.00;1.58;;;12.20;74.50;;;;;;2342254;54;21537;-70
2021/11/05 09:16:06;;;;;;;2.90;1.70;;;12.20;74.50;;;;;;2328823;54;20888;-69
2021/11/05 09:18:34;;;;;;;4.37;2.12;;;12.20;74.50;;;;;;2560191;53;21043;-69
2021/11/05 09:21:06;;;;;;;3.22;1.67;;;12.20;74.30;;;;;;2323449;54;20995;-70
2021/11/05 09:23:32;;;;;;;3.17;1.87;;;12.20;74.00;;;;;;2341051;54;20976;-69
2021/11/05 09:25:58;;;;;;;3.62;1.67;;;12.30;74.10;;;;;;2322483;54;20909;-69
2021/11/05 09:28:25;;;;;;;3.05;1.85;;;12.30;74.10;;;;;;2326088;54;20981;-70
2021/11/05 09:30:54;;;;;;;3.00;1.80;;;12.30;74.00;;;;;;2582797;53;20949;-69
2021/11/05 09:33:21;;;;;;;3.78;1.92;;;12.30;74.00;;;;;;2340588;54;20957;-70
2021/11/05 09:35:50;;;;;;;4.72;2.45;;;12.30;73.90;;;;;;2552993;53;1247878;-70
2021/11/05 09:38:17;;;;;;;3.85;2.22;;;12.30;73.80;;;;;;2328370;54;21000;-70
2021/11/05 09:40:44;;;;;;;4.25;2.30;;;12.40;73.80;;;;;;2330081;54;21077;-70
2021/11/05 09:43:10;;;;;;;3.22;1.70;;;12.40;73.80;;;;;;2329436;54;21803;-70
2021/11/05 09:45:37;;;;;;;3.45;2.10;;;12.40;73.90;;;;;;2342042;54;20976;-70
2021/11/05 09:48:06;;;;;;;2.90;1.67;;;12.40;74.10;;;;;;2322262;54;21009;-70
2021/11/05 09:50:33;;;;;;;3.83;2.00;;;12.40;74.20;;;;;;2328528;54;21707;-70
2021/11/05 09:52:59;;;;;;;3.58;2.12;;;12.40;74.30;;;;;;2578278;53;20977;-69
2021/11/05 09:55:26;;;;;;;3.17;1.98;;;12.50;74.50;;;;;;2326523;54;20941;-69
2021/11/05 09:57:52;;;;;;;3.15;2.10;;;12.50;74.60;;;;;;2341572;54;20941;-69
2021/11/05 10:00:22;;;;;;;3.85;1.90;;;12.50;74.70;;;;;;2342576;54;21059;-69
2021/11/05 10:02:48;;;;;;;3.72;2.45;;;12.50;74.70;;;;;;2568665;53;21887;-69
2021/11/05 10:05:15;;;;;;;4.53;2.72;;;12.60;75.00;;;;;;2305809;55;20969;-70
2021/11/05 10:07:50;;;;;;;3.80;2.22;;;12.60;74.90;;;;;;2341510;54;21004;-69
2021/11/05 10:10:23;;;;;;;3.70;2.25;;;12.60;74.70;;;;;;2308674;54;21516;-69
2021/11/05 10:13:02;;;;;;;4.07;2.30;;;12.70;74.90;;;;;;2575251;53;21085;-70
2021/11/05 10:15:48;;;;;;;3.75;2.05;;;12.70;74.80;;;;;;2342620;54;20981;-70
2021/11/05 10:18:29;;;;;;;3.83;2.35;;;12.80;74.50;;;;;;2336256;54;20967;-69
2021/11/05 10:21:12;;;;;;;4.22;2.67;;;12.80;74.20;;;;;;2328603;54;21547;-69
2021/11/05 10:23:40;;;;;;;3.33;2.20;;;12.90;74.20;;;;;;2561679;53;21041;-70
2021/11/05 10:26:33;;;;;;;3.87;2.20;;;12.90;74.50;;;;;;2320717;54;20949;-70
2021/11/05 10:28:59;;;;;;;;;;;13.00;74.00;;;;;;2592010;53;20985;-69
2021/11/05 10:31:31;;;;;;;3.92;2.15;;;13.00;73.60;;;;;;2573494;53;20449;-70
2021/11/05 10:34:00;;;;;;;3.30;1.90;;;13.00;74.50;;;;;;2575563;53;20941;-69
2021/11/05 10:36:27;;;;;;;3.50;2.30;;;13.00;74.20;;;;;;2587955;53;21025;-70
2021/11/05 10:38:55;;;;;;;3.40;2.00;;;13.10;74.20;;;;;;2331997;54;20949;-69
2021/11/05 10:41:25;;;;;;;3.75;2.17;;;13.10;74.20;;;;;;2546692;53;21065;-70
2021/11/05 10:43:56;;;;;;;3.25;2.10;;;13.10;74.10;;;;;;2560538;53;21052;-70
2021/11/05 10:46:28;;;;;;;4.18;1.95;;;13.10;74.20;;;;;;2310684;54;20957;-70
2021/11/05 10:48:56;;;;;;;3.87;2.40;;;13.10;74.50;;;;;;2325576;54;21111;-69
2021/11/05 10:51:24;;;;;;;3.47;2.05;;;13.10;73.70;;;;;;2548814;53;21004;-69
2021/11/05 10:53:50;;;;;;;3.45;1.95;;;13.10;73.40;;;;;;2342441;54;20901;-69
2021/11/05 10:56:29;;;;;;;3.12;1.83;;;13.10;73.30;;;;;;2588773;53;20931;-70
2021/11/05 10:58:58;;;;;;;3.25;1.77;;;13.10;73.30;;;;;;2336779;54;20941;-69
2021/11/05 11:01:29;;;;;;;4.82;1.77;;;13.10;73.10;;;;;;2547487;53;20953;-70
2021/11/05 11:03:57;;;;;;;4.65;1.37;;;13.00;73.10;;;;;;2320012;55;21052;-70
2021/11/05 11:06:28;;;;;;;3.20;1.70;;;13.00;73.10;;;;;;2566609;53;21013;-70
2021/11/05 11:08:56;;;;;;;3.90;1.85;;;13.10;73.30;;;;;;2323056;54;21845;-70
2021/11/05 11:11:40;;;;;;;4.07;2.08;;;13.00;73.20;;;;;;2331405;54;20949;-70
2021/11/05 11:14:15;;;;;;;3.70;1.92;;;13.00;72.80;;;;;;2562649;53;20988;-70
2021/11/05 11:17:15;;;;;;;3.72;2.10;;;13.00;73.20;;;;;;2558305;53;21624;-70
2021/11/05 11:19:46;;;;;;;4.95;2.45;;;13.00;73.50;;;;;;2570162;53;20953;-70
2021/11/05 11:22:14;;;;;;;4.47;2.22;;;13.00;73.70;;;;;;2560947;53;20944;-70
2021/11/05 11:24:41;;;;;;;3.87;1.87;;;13.00;73.90;;;;;;2312070;54;21049;-70
2021/11/05 11:27:09;;;;;;;3.25;1.77;;;13.00;74.20;;;;;;2546651;53;21059;-70
2021/11/05 11:29:51;;;;;;;4.60;1.87;;;13.10;74.30;;;;;;2314679;54;20949;-70
2021/11/05 11:32:18;;;;;;;3.62;2.10;;;13.10;74.30;;;;;;2325360;54;20962;-70
2021/11/05 11:34:47;;;;;;;5.25;2.30;;;13.10;74.40;;;;;;2325849;54;20989;-70
2021/11/05 11:37:13;;;;;;;3.85;2.22;;;13.20;74.30;;;;;;2555828;53;20917;-70
2021/11/05 11:39:39;;;;;;;4.05;2.28;;;13.20;74.30;;;;;;2334675;54;21311;-70
2021/11/05 11:42:06;;;;;;;3.58;2.25;;;13.20;74.30;;;;;;2553645;53;21092;-70
2021/11/05 11:44:35;;;;;;;3.92;2.30;;;13.30;74.50;;;;;;2318988;54;21020;-70
2021/11/05 11:47:10;;;;;;;3.47;2.20;;;13.20;74.30;;;;;;2522571;53;22109;-70
2021/11/05 11:49:45;;;;;;;5.95;2.50;;;13.30;74.10;;;;;;2317891;54;21104;-70
2021/11/05 11:52:31;;;;;;;4.15;2.53;;;13.40;74.00;;;;;;2545530;53;20989;-70
2021/11/05 11:55:11;;;;;;;3.90;2.53;;;13.40;73.70;;;;;;2327832;54;21111;-70
2021/11/05 11:57:38;;;;;;;4.62;2.90;;;13.40;73.90;;;;;;2303906;55;20989;-70
2021/11/05 12:00:17;;;;;;;4.20;2.60;;;13.40;74.40;;;;;;2332399;54;21012;-70
2021/11/05 12:02:48;;;;;;;4.10;2.55;;;13.50;74.40;;;;;;2556312;53;21084;-70
2021/11/05 12:05:40;;;;;;;3.60;2.30;;;13.50;74.30;;;;;;2328963;54;21352;-70
2021/11/05 12:09:00;;;;;;;3.78;2.37;;;13.60;73.90;;;;;;2559107;53;20960;-70
2021/11/05 12:11:27;;;;;;;4.35;2.85;;;13.60;74.10;;;;;;2317191;54;21039;-70
2021/11/05 12:14:07;;;;;;;4.62;2.90;;;13.70;74.60;;;;;;2329893;54;20976;-70
2021/11/05 12:16:35;;;;;;;4.00;2.65;;;13.70;74.00;;;;;;2319034;54;21017;-70
2021/11/05 12:19:11;;;;;;;4.53;2.60;;;13.70;74.40;;;;;;2554838;53;20996;-70
2021/11/05 12:22:17;;;;;;;4.47;2.85;;;13.80;74.00;;;;;;2313501;54;20984;-70
2021/11/05 12:24:45;;;;;;;4.57;2.53;;;13.80;73.90;;;;;;2550090;53;20961;-70
2021/11/05 12:27:15;;;;;;;4.75;3.08;;;13.90;74.30;;;;;;2322226;54;21100;-70
2021/11/05 12:29:51;;;;;;;4.55;2.90;;;13.90;74.40;;;;;;2556558;53;20937;-70
2021/11/05 12:32:28;;;;;;;5.00;3.25;;;13.90;74.00;;;;;;2313200;54;21954;-70
2021/11/05 12:35:56;;;;;;;4.60;3.10;;;14.00;73.80;;;;;;2321276;54;20980;-70
2021/11/05 12:38:22;;;;;;;4.32;2.75;;;13.90;74.20;;;;;;2323865;54;20976;-70
2021/11/05 12:41:09;;;;;;;4.78;2.83;;;14.00;74.50;;;;;;2314946;54;21075;-70
2021/11/05 12:43:38;;;;;;;4.43;3.10;;;14.00;73.70;;;;;;2313902;54;20964;-70
2021/11/05 12:46:16;;;;;;;7.18;4.35;;;14.10;74.70;;;;;;2551459;53;20961;-70
2021/11/05 12:48:51;;;;;;;5.53;3.75;;;14.10;74.90;;;;;;2326241;54;20944;-70
2021/11/05 12:51:29;;;;;;;6.50;3.97;;;14.20;75.50;;;;;;2313528;55;21008;-70
2021/11/05 12:54:06;;;;;;;8.00;4.22;;;14.30;75.50;;;;;;2325263;54;21060;-70
2021/11/05 12:56:33;;;;;;;6.22;4.25;;;14.40;75.50;;;;;;2566662;53;20965;-70
2021/11/05 12:59:00;;;;;;;6.78;4.68;;;14.50;75.70;;;;;;2311955;54;20993;-70